Time;durP1;ratioP1;P1;durP2;ratioP2;P2;SDS_P1;SDS_P2;PMS_P1;PMS_P2;Temp;Humidity;BMP_temperature;BMP_pressure;BME280_temperature;BME280_humidity;BME280_pressure;Samples;Min_cycle;Max_cycle;Signal;HPM_P1;HPM_P2
2023/06/01 00:00:41;;;;;;;9.90;4.90;;;17.80;99.90;;;;;;4934974;29;20560;-78
2023/06/01 00:03:11;;;;;;;9.13;4.80;;;17.70;99.90;;;;;;4931166;29;20053;-75
2023/06/01 00:05:38;;;;;;;10.40;5.30;;;17.60;99.90;;;;;;4926854;29;20295;-73
2023/06/01 00:08:06;;;;;;;7.00;4.60;;;17.70;99.90;;;;;;4920425;29;20080;-76
2023/06/01 00:10:34;;;;;;;9.57;4.72;;;17.60;99.90;;;;;;4922534;29;20467;-76
2023/06/01 00:13:01;;;;;;;8.93;4.40;;;17.50;99.90;;;;;;4929438;29;20059;-73
2023/06/01 00:15:28;;;;;;;9.38;5.00;;;17.50;99.90;;;;;;4924737;29;20063;-74
2023/06/01 00:17:57;;;;;;;9.63;5.20;;;17.40;99.90;;;;;;4920325;29;20064;-75
2023/06/01 00:20:24;;;;;;;9.23;4.47;;;17.40;99.90;;;;;;4921821;29;20143;-74
2023/06/01 00:22:55;;;;;;;10.35;5.03;;;17.30;99.90;;;;;;4940886;29;20056;-74
2023/06/01 00:25:26;;;;;;;6.00;4.10;;;17.30;99.90;;;;;;4897532;29;20063;-74
2023/06/01 00:27:53;;;;;;;9.38;4.72;;;17.30;99.90;;;;;;4927533;29;20071;-79
2023/06/01 00:30:21;;;;;;;7.65;4.07;;;17.30;99.90;;;;;;4942027;29;20079;-74
2023/06/01 00:32:50;;;;;;;7.20;3.88;;;17.20;99.90;;;;;;4922374;29;20059;-74
2023/06/01 00:35:24;;;;;;;6.57;3.75;;;17.20;99.90;;;;;;4921220;29;20044;-74
2023/06/01 00:37:57;;;;;;;11.93;4.60;;;17.10;99.90;;;;;;4927948;29;20051;-78
2023/06/01 00:40:24;;;;;;;11.43;3.85;;;17.10;99.90;;;;;;4921553;29;20088;-75
2023/06/01 00:42:52;;;;;;;9.13;3.90;;;17.10;99.90;;;;;;4937631;29;20071;-76
2023/06/01 00:45:19;;;;;;;8.20;4.72;;;17.10;99.90;;;;;;4921453;29;20052;-77
2023/06/01 00:47:47;;;;;;;6.45;4.03;;;17.10;99.90;;;;;;4916388;29;21297;-73
2023/06/01 00:50:16;;;;;;;12.73;3.78;;;17.10;99.90;;;;;;4919955;29;20056;-77
2023/06/01 00:52:46;;;;;;;10.00;4.30;;;17.10;99.90;;;;;;4907787;29;20440;-78
2023/06/01 00:55:14;;;;;;;;;;;17.20;99.90;;;;;;4924573;29;20115;-77
2023/06/01 00:57:52;;;;;;;5.45;3.78;;;17.20;99.90;;;;;;4912733;29;19922;-78
2023/06/01 01:00:22;;;;;;;6.90;4.55;;;17.20;99.90;;;;;;4930572;29;20059;-76
2023/06/01 01:02:51;;;;;;;7.53;4.15;;;17.30;99.90;;;;;;4935656;29;20079;-78
2023/06/01 01:05:27;;;;;;;9.27;4.50;;;17.20;99.90;;;;;;4921986;29;20048;-77
2023/06/01 01:08:30;;;;;;;6.45;3.80;;;17.20;99.90;;;;;;4897814;29;20084;-75
2023/06/01 01:11:04;;;;;;;8.15;4.20;;;17.10;99.90;;;;;;4921635;29;20386;-77
2023/06/01 01:13:50;;;;;;;10.23;3.90;;;17.20;99.90;;;;;;4929460;29;20067;-72
2023/06/01 01:16:31;;;;;;;8.23;4.30;;;17.20;99.90;;;;;;4925330;29;20055;-74
2023/06/01 01:19:08;;;;;;;9.13;4.00;;;17.10;99.90;;;;;;4920277;29;20060;-76
2023/06/01 01:21:49;;;;;;;6.00;4.30;;;17.10;99.90;;;;;;4942600;29;20112;-73
2023/06/01 01:24:48;;;;;;;7.13;3.90;;;17.10;99.90;;;;;;4910970;29;20056;-72
2023/06/01 01:27:51;;;;;;;9.88;4.30;;;17.10;99.90;;;;;;4890409;29;20051;-77
2023/06/01 01:30:22;;;;;;;7.45;4.18;;;17.10;99.90;;;;;;4922216;29;20044;-78
2023/06/01 01:32:50;;;;;;;6.88;3.90;;;17.10;99.90;;;;;;4920048;29;20408;-75
2023/06/01 01:35:19;;;;;;;7.07;4.72;;;17.10;99.90;;;;;;4930329;29;20115;-77
2023/06/01 01:37:55;;;;;;;8.65;4.28;;;17.20;99.90;;;;;;4926970;29;20051;-76
2023/06/01 01:40:44;;;;;;;8.82;4.63;;;17.00;99.90;;;;;;4929279;29;20504;-71
2023/06/01 01:43:26;;;;;;;7.20;4.35;;;17.10;99.90;;;;;;4892848;29;20054;-76
2023/06/01 01:46:26;;;;;;;7.57;4.35;;;17.10;99.90;;;;;;4920348;29;20065;-74
2023/06/01 01:49:07;;;;;;;8.48;4.68;;;16.90;99.90;;;;;;4900942;29;20520;-73
2023/06/01 01:51:35;;;;;;;11.98;6.35;;;17.00;99.90;;;;;;4921253;29;20056;-75
2023/06/01 01:54:13;;;;;;;6.88;4.47;;;17.10;99.90;;;;;;4920812;29;20044;-73
2023/06/01 01:56:44;;;;;;;6.88;4.40;;;17.10;99.90;;;;;;4912871;29;20420;-70
2023/06/01 01:59:12;;;;;;;8.57;4.60;;;17.10;99.90;;;;;;4918692;29;20440;-73
2023/06/01 02:01:46;;;;;;;8.13;4.45;;;16.80;99.90;;;;;;4915434;29;20058;-73
2023/06/01 02:04:14;;;;;;;9.88;4.95;;;16.80;99.90;;;;;;4906512;29;20059;-75
2023/06/01 02:06:41;;;;;;;9.70;4.88;;;17.00;99.90;;;;;;4924253;29;20064;-74
2023/06/01 02:09:09;;;;;;;7.63;4.40;;;17.00;99.90;;;;;;4922769;29;20070;-76
2023/06/01 02:11:36;;;;;;;9.23;4.30;;;16.90;99.90;;;;;;4933803;29;20503;-77
2023/06/01 02:14:04;;;;;;;10.77;4.90;;;16.90;99.90;;;;;;4927635;29;20491;-77
2023/06/01 02:16:31;;;;;;;8.40;4.60;;;16.90;99.90;;;;;;4927682;29;20824;-77
2023/06/01 02:18:59;;;;;;;13.68;4.40;;;16.90;99.90;;;;;;4931867;29;20140;-78
2023/06/01 02:21:26;;;;;;;7.20;4.45;;;17.00;99.90;;;;;;4939580;29;20097;-77
2023/06/01 02:23:54;;;;;;;8.45;4.72;;;17.00;99.90;;;;;;4923112;29;20048;-78
2023/06/01 02:26:21;;;;;;;9.40;4.95;;;16.80;99.90;;;;;;4923167;29;20051;-75
2023/06/01 02:28:51;;;;;;;9.57;4.75;;;16.90;99.90;;;;;;4908058;29;20395;-77
2023/06/01 02:31:18;;;;;;;8.52;4.88;;;16.90;99.90;;;;;;4922868;29;20056;-74
2023/06/01 02:33:46;;;;;;;7.78;4.55;;;16.90;99.90;;;;;;4930896;29;20103;-75
2023/06/01 02:36:16;;;;;;;11.25;4.75;;;16.80;99.90;;;;;;4907654;29;20063;-76
2023/06/01 02:38:43;;;;;;;7.95;5.13;;;16.80;99.90;;;;;;4909271;29;20563;-74
2023/06/01 02:41:12;;;;;;;9.98;4.90;;;16.90;99.90;;;;;;4930111;29;20476;-74
2023/06/01 02:43:39;;;;;;;9.98;4.82;;;16.90;99.90;;;;;;4920149;29;20453;-76
2023/06/01 02:46:06;;;;;;;6.97;4.63;;;16.90;99.90;;;;;;4920812;29;20080;-77
2023/06/01 02:48:34;;;;;;;7.35;4.82;;;16.90;99.90;;;;;;4920877;29;20080;-75
2023/06/01 02:51:01;;;;;;;12.13;4.93;;;17.00;99.90;;;;;;4919613;29;20415;-77
2023/06/01 02:53:29;;;;;;;10.65;4.80;;;16.90;99.90;;;;;;4920903;29;20052;-77
2023/06/01 02:55:56;;;;;;;9.55;4.90;;;16.60;99.90;;;;;;4920150;29;20136;-77
2023/06/01 02:58:24;;;;;;;7.88;4.78;;;16.70;99.90;;;;;;4930638;29;20257;-77
2023/06/01 03:00:51;;;;;;;10.88;4.72;;;16.80;99.90;;;;;;4905349;29;20088;-77
2023/06/01 03:03:18;;;;;;;7.63;4.50;;;16.80;99.90;;;;;;4925563;29;20139;-77
2023/06/01 03:05:47;;;;;;;10.00;5.07;;;16.90;99.90;;;;;;4930359;29;20075;-76
2023/06/01 03:08:16;;;;;;;7.68;4.88;;;16.90;99.90;;;;;;4935514;29;20461;-77
2023/06/01 03:10:44;;;;;;;8.15;4.72;;;16.90;99.90;;;;;;4916477;29;20131;-76
2023/06/01 03:13:13;;;;;;;9.73;4.90;;;16.90;99.90;;;;;;4919930;29;20048;-76
2023/06/01 03:15:40;;;;;;;8.27;4.90;;;16.90;99.90;;;;;;4902930;29;20115;-76
2023/06/01 03:18:08;;;;;;;7.03;4.25;;;16.80;99.90;;;;;;4931973;29;20048;-75
2023/06/01 03:20:36;;;;;;;9.60;4.45;;;16.80;99.90;;;;;;4932382;29;20500;-76
2023/06/01 03:23:03;;;;;;;8.20;4.22;;;16.80;99.90;;;;;;4937632;29;20079;-76
2023/06/01 03:25:30;;;;;;;8.18;4.47;;;16.70;99.90;;;;;;4929004;29;20048;-76
2023/06/01 03:27:58;;;;;;;7.32;4.10;;;16.70;99.90;;;;;;4919815;29;20055;-77
2023/06/01 03:30:25;;;;;;;7.90;4.18;;;16.70;99.90;;;;;;4935666;29;20060;-74
2023/06/01 03:33:02;;;;;;;12.55;4.43;;;16.50;99.90;;;;;;4925426;29;20142;-74
2023/06/01 03:35:44;;;;;;;8.43;4.05;;;16.50;99.90;;;;;;4898650;29;20062;-78
2023/06/01 03:38:28;;;;;;;9.43;4.25;;;16.50;99.90;;;;;;4925326;29;20051;-72
2023/06/01 03:40:58;;;;;;;10.23;4.80;;;16.60;99.90;;;;;;4912945;29;20052;-76
2023/06/01 03:43:26;;;;;;;8.02;4.47;;;16.60;99.90;;;;;;4927591;29;20048;-75
2023/06/01 03:45:53;;;;;;;11.35;4.57;;;16.40;99.90;;;;;;4926946;29;20080;-77
2023/06/01 03:48:53;;;;;;;8.27;4.43;;;16.40;99.90;;;;;;4910795;29;20271;-77
2023/06/01 03:51:20;;;;;;;9.65;4.70;;;16.40;99.90;;;;;;4925978;29;20142;-76
2023/06/01 03:53:48;;;;;;;12.18;4.93;;;16.30;99.90;;;;;;4928212;29;20139;-78
2023/06/01 03:56:15;;;;;;;14.43;4.80;;;16.30;99.90;;;;;;4920049;29;20160;-77
2023/06/01 03:58:42;;;;;;;10.40;4.40;;;16.40;99.90;;;;;;4920968;29;20048;-77
2023/06/01 04:01:11;;;;;;;9.18;4.10;;;16.30;99.90;;;;;;4922230;29;20056;-79
2023/06/01 04:03:39;;;;;;;7.90;4.55;;;16.40;99.90;;;;;;4930898;29;20115;-77
2023/06/01 04:06:13;;;;;;;10.75;4.28;;;16.40;99.90;;;;;;4921022;29;20079;-77
2023/06/01 04:08:48;;;;;;;6.95;4.25;;;16.40;99.90;;;;;;4902321;29;20076;-75
2023/06/01 04:14:40;;;;;;;6.00;3.75;;;16.60;99.90;;;;;;4901786;29;20044;-74
2023/06/01 04:17:07;;;;;;;6.85;4.30;;;16.50;99.90;;;;;;4923550;29;20052;-75
2023/06/01 04:19:35;;;;;;;13.23;4.85;;;16.50;99.90;;;;;;4923212;29;20116;-74
2023/06/01 04:22:02;;;;;;;11.05;4.45;;;16.60;99.90;;;;;;4919029;29;20453;-75
2023/06/01 04:24:30;;;;;;;13.60;5.55;;;16.60;99.90;;;;;;4913423;29;20062;-75
2023/06/01 04:26:58;;;;;;;10.45;4.88;;;16.40;99.90;;;;;;4917171;29;20560;-75
2023/06/01 04:29:31;;;;;;;8.25;5.78;;;16.50;99.90;;;;;;4913832;29;20052;-73
2023/06/01 04:31:58;;;;;;;10.77;5.18;;;16.50;99.90;;;;;;4930581;29;20404;-74
2023/06/01 04:34:26;;;;;;;9.18;5.30;;;16.60;99.90;;;;;;4921540;29;20056;-71
2023/06/01 04:36:55;;;;;;;10.70;5.13;;;16.60;99.90;;;;;;4904052;29;20056;-73
2023/06/01 04:39:23;;;;;;;14.02;7.57;;;16.60;99.90;;;;;;4919442;29;20052;-75
2023/06/01 04:41:55;;;;;;;10.50;6.45;;;16.60;99.90;;;;;;4907808;29;20080;-74
2023/06/01 04:44:22;;;;;;;11.07;6.70;;;16.70;99.90;;;;;;4919051;29;20084;-76
2023/06/01 04:46:51;;;;;;;12.38;6.55;;;16.70;99.90;;;;;;4922095;29;20067;-76
2023/06/01 04:52:30;;;;;;;10.07;6.68;;;16.90;99.90;;;;;;4927090;29;20108;-79
2023/06/01 04:54:59;;;;;;;13.07;6.78;;;17.00;99.90;;;;;;4918716;29;20047;-80
2023/06/01 04:57:28;;;;;;;14.68;7.63;;;17.10;99.90;;;;;;4939224;29;20048;-80
2023/06/01 04:59:57;;;;;;;21.77;12.90;;;17.10;99.90;;;;;;4931603;29;20111;-78
2023/06/01 05:02:26;;;;;;;27.77;15.88;;;17.40;99.90;;;;;;4934571;29;20083;-73
2023/06/01 05:04:53;;;;;;;45.60;29.63;;;17.50;99.90;;;;;;4942708;29;20040;-80
2023/06/01 05:07:24;;;;;;;152.27;100.15;;;17.70;99.90;;;;;;4929499;29;20057;-74
2023/06/01 05:09:51;;;;;;;59.35;40.60;;;17.80;99.90;;;;;;4939689;29;20416;-75
2023/06/01 05:12:19;;;;;;;42.90;27.42;;;17.90;99.90;;;;;;4934846;29;20051;-76
2023/06/01 05:14:54;;;;;;;121.68;74.45;;;17.80;99.90;;;;;;4924270;29;20058;-72
2023/06/01 05:17:52;;;;;;;28.33;18.38;;;17.80;99.90;;;;;;4895964;29;20064;-79
2023/06/01 05:20:20;;;;;;;17.98;11.30;;;17.80;99.90;;;;;;4940758;29;20131;-73
2023/06/01 05:22:47;;;;;;;13.73;9.13;;;17.80;99.90;;;;;;4921220;29;20048;-75
2023/06/01 05:25:15;;;;;;;13.05;8.18;;;17.80;99.90;;;;;;4928654;29;20082;-77
2023/06/01 05:27:42;;;;;;;10.23;6.53;;;17.80;99.90;;;;;;4928224;29;20087;-75
2023/06/01 05:30:10;;;;;;;14.27;8.10;;;17.80;99.90;;;;;;4922893;29;20044;-73
2023/06/01 05:32:37;;;;;;;10.18;7.07;;;17.70;99.90;;;;;;4933662;29;20051;-77
2023/06/01 05:35:10;;;;;;;11.40;7.00;;;17.80;99.90;;;;;;4920478;29;20155;-72
2023/06/01 05:37:37;;;;;;;15.73;7.97;;;17.90;99.90;;;;;;4915983;29;20074;-76
2023/06/01 05:40:07;;;;;;;12.40;7.78;;;18.00;99.90;;;;;;4946812;29;20075;-74
2023/06/01 05:42:35;;;;;;;18.02;7.43;;;18.10;99.90;;;;;;4924696;29;20108;-74
2023/06/01 05:45:03;;;;;;;37.85;20.98;;;17.90;99.90;;;;;;4919746;29;20132;-74
2023/06/01 05:47:33;;;;;;;168.07;101.15;;;18.00;99.90;;;;;;4904260;29;20052;-75
2023/06/01 05:50:06;;;;;;;27.00;17.42;;;18.20;99.90;;;;;;4925250;29;20054;-73
2023/06/01 05:52:34;;;;;;;18.58;10.60;;;18.30;99.90;;;;;;4921559;29;20056;-76
2023/06/01 05:55:01;;;;;;;11.63;6.32;;;18.20;99.90;;;;;;4933755;29;20167;-74
2023/06/01 05:57:29;;;;;;;14.88;6.43;;;18.20;99.90;;;;;;4924989;29;20193;-74
2023/06/01 05:59:57;;;;;;;12.13;5.95;;;18.20;99.90;;;;;;4918366;29;20052;-73
2023/06/01 06:02:24;;;;;;;12.45;7.30;;;18.20;99.90;;;;;;4921619;29;20436;-74
2023/06/01 06:04:52;;;;;;;11.80;6.15;;;18.40;99.90;;;;;;4921873;29;20125;-79
2023/06/01 06:07:27;;;;;;;14.57;7.57;;;18.40;99.90;;;;;;4938515;29;20118;-74
2023/06/01 06:10:36;;;;;;;14.13;8.05;;;18.50;99.90;;;;;;4930579;29;20059;-79
2023/06/01 06:13:05;;;;;;;18.65;6.38;;;18.60;99.90;;;;;;4950877;29;20056;-80
2023/06/01 06:15:33;;;;;;;8.50;4.47;;;18.70;99.90;;;;;;4939023;29;20040;-75
2023/06/01 06:18:02;;;;;;;9.55;4.95;;;18.30;99.90;;;;;;4944979;29;20031;-82
2023/06/01 06:21:00;;;;;;;8.93;4.95;;;18.50;99.90;;;;;;4949740;29;20039;-75
2023/06/01 06:24:01;;;;;;;10.10;5.00;;;18.80;99.90;;;;;;4936668;29;20124;-72
2023/06/01 06:26:44;;;;;;;8.13;4.65;;;18.90;99.90;;;;;;4941714;29;20135;-75
2023/06/01 06:29:29;;;;;;;8.85;4.40;;;19.00;99.90;;;;;;4922236;29;20032;-72
2023/06/01 06:32:42;;;;;;;8.20;4.70;;;19.00;99.90;;;;;;4872619;29;20056;-74
2023/06/01 06:35:29;;;;;;;9.68;4.72;;;19.00;99.90;;;;;;4880787;29;20071;-79
2023/06/01 06:37:57;;;;;;;7.63;4.18;;;19.00;99.90;;;;;;4920469;29;20461;-77
2023/06/01 06:40:27;;;;;;;8.70;4.40;;;19.10;99.90;;;;;;4919721;29;20032;-78
2023/06/01 06:42:54;;;;;;;8.25;4.43;;;19.30;99.90;;;;;;4918110;29;20061;-85
2023/06/01 06:45:26;;;;;;;9.88;4.70;;;19.20;99.90;;;;;;4896863;29;20056;-83
2023/06/01 06:47:55;;;;;;;9.18;4.63;;;19.30;99.90;;;;;;4914066;29;20061;-77
2023/06/01 06:50:41;;;;;;;6.93;4.43;;;19.30;99.90;;;;;;4898149;29;20072;-82
2023/06/01 06:53:10;;;;;;;7.40;4.78;;;19.40;99.90;;;;;;4915044;29;20060;-76
2023/06/01 06:58:49;;;;;;;7.28;4.28;;;19.30;99.90;;;;;;1409258;27;20252;-74
2023/06/01 07:01:44;;;;;;;9.43;4.97;;;19.40;99.90;;;;;;4887810;29;20060;-82
2023/06/01 07:08:39;;;;;;;8.95;4.15;;;19.50;99.90;;;;;;4890332;29;20417;-74
2023/06/01 07:11:55;;;;;;;9.10;3.95;;;19.50;99.90;;;;;;4891958;29;20048;-77
2023/06/01 07:17:58;;;;;;;7.65;4.65;;;19.50;99.90;;;;;;4885294;29;20061;-75
2023/06/01 07:20:44;;;;;;;;;;;;;;;;;;;;;
2023/06/01 07:24:08;;;;;;;6.82;4.05;;;19.60;99.90;;;;;;4882236;29;20129;-72
2023/06/01 07:27:09;;;;;;;6.78;3.70;;;19.90;99.90;;;;;;4897563;29;20116;-72
2023/06/01 07:29:44;;;;;;;6.15;3.38;;;20.20;99.90;;;;;;4905149;29;20501;-75
2023/06/01 07:33:17;;;;;;;9.30;3.72;;;20.00;99.90;;;;;;4893581;29;20045;-73
2023/06/01 07:36:23;;;;;;;6.90;3.78;;;20.10;99.90;;;;;;4883023;29;20052;-75
2023/06/01 07:43:46;;;;;;;5.82;3.20;;;20.40;99.90;;;;;;4883809;29;20112;-74
2023/06/01 07:46:38;;;;;;;9.93;3.10;;;20.70;99.90;;;;;;4870507;29;20074;-72
2023/06/01 07:52:10;;;;;;;9.07;4.50;;;20.70;99.90;;;;;;5037292;23;20688;-79
2023/06/01 07:54:59;;;;;;;7.03;3.65;;;20.90;99.90;;;;;;4900427;29;20083;-75
2023/06/01 07:58:17;;;;;;;6.00;3.22;;;21.00;99.90;;;;;;4891718;29;20070;-77
2023/06/01 08:02:17;;;;;;;6.90;3.50;;;21.00;99.90;;;;;;4888407;29;20061;-76
2023/06/01 08:08:49;;;;;;;7.65;3.38;;;21.10;99.90;;;;;;4889582;29;20061;-75
2023/06/01 08:15:00;;;;;;;7.93;3.58;;;21.20;99.90;;;;;;4905662;29;20591;-78
2023/06/01 08:17:48;;;;;;;9.43;4.07;;;21.30;99.90;;;;;;4878796;29;20068;-75
2023/06/01 08:24:13;;;;;;;6.82;3.67;;;21.30;99.90;;;;;;4912517;29;20112;-76
2023/06/01 08:27:00;;;;;;;8.45;4.05;;;21.20;99.90;;;;;;4914487;29;20060;-76
2023/06/01 08:50:07;;;;;;;5.78;3.25;;;22.10;99.90;;;;;;5396658;23;20109;31
2023/06/01 08:53:01;;;;;;;9.43;3.47;;;22.00;99.90;;;;;;4837283;29;20034;-75
2023/06/01 08:56:27;;;;;;;12.60;3.90;;;22.10;99.90;;;;;;4826574;29;20061;-76
2023/06/01 09:03:11;;;;;;;8.55;3.55;;;22.20;99.90;;;;;;4882594;29;20113;-79
2023/06/01 09:10:29;;;;;;;7.57;3.50;;;22.30;99.90;;;;;;4893634;24;20638;-76
2023/06/01 09:13:47;;;;;;;5.82;3.35;;;22.20;99.90;;;;;;4888699;29;20085;-79
2023/06/01 09:17:21;;;;;;;8.73;5.03;;;22.10;99.90;;;;;;4887169;29;20064;-80
2023/06/01 09:20:12;;;;;;;8.43;4.95;;;22.40;99.90;;;;;;4905983;23;20055;-81
2023/06/01 09:22:46;;;;;;;9.05;4.07;;;22.60;99.90;;;;;;4927181;29;20104;-78
2023/06/01 09:25:48;;;;;;;6.85;4.32;;;22.50;99.90;;;;;;4923258;29;20052;-79
2023/06/01 09:29:07;;;;;;;11.90;6.28;;;22.40;99.90;;;;;;4895528;29;20081;-80
2023/06/01 09:33:08;;;;;;;8.38;3.67;;;22.50;99.90;;;;;;4920313;29;20063;-77
2023/06/01 09:36:08;;;;;;;7.28;3.58;;;22.70;99.90;;;;;;4891982;29;20060;-76
2023/06/01 09:42:50;;;;;;;8.13;3.55;;;22.90;99.90;;;;;;4908820;29;20058;-76
2023/06/01 09:45:26;;;;;;;9.68;3.53;;;22.80;99.90;;;;;;4928060;29;20048;-78
2023/06/01 09:48:44;;;;;;;;;;;22.70;99.90;;;;;;4909653;29;20136;-77
2023/06/01 09:51:29;;;;;;;5.45;3.30;;;22.90;99.90;;;;;;4922559;29;19958;-75
2023/06/01 09:53:58;;;;;;;6.20;3.80;;;23.10;99.90;;;;;;4913989;29;20049;-77
2023/06/01 09:56:43;;;;;;;6.45;3.70;;;23.40;99.90;;;;;;4908187;29;20063;-76
2023/06/01 10:03:01;;;;;;;6.82;3.35;;;23.90;99.90;;;;;;4922890;29;20044;-76
2023/06/01 10:05:38;;;;;;;5.97;3.25;;;23.60;99.90;;;;;;4908151;29;20112;-77
2023/06/01 10:08:08;;;;;;;5.53;3.30;;;23.70;99.90;;;;;;4898232;29;20081;-75
2023/06/01 10:10:37;;;;;;;10.57;3.83;;;23.60;99.90;;;;;;4922926;29;20040;-78
2023/06/01 10:13:31;;;;;;;6.78;3.50;;;23.60;99.90;;;;;;4898294;29;20056;-76
2023/06/01 10:16:31;;;;;;;5.43;3.20;;;23.60;99.90;;;;;;4896700;29;20125;-76
2023/06/01 10:19:31;;;;;;;7.88;3.88;;;23.50;99.90;;;;;;4899320;29;20072;-77
2023/06/01 10:22:03;;;;;;;6.68;3.55;;;23.50;99.90;;;;;;4895533;29;20060;-78
2023/06/01 10:24:46;;;;;;;9.63;4.15;;;23.60;99.90;;;;;;4890039;23;20061;-75
2023/06/01 10:28:09;;;;;;;6.88;3.70;;;23.80;99.90;;;;;;4869517;29;20057;-75
2023/06/01 10:31:28;;;;;;;8.70;3.78;;;24.30;99.90;;;;;;4829555;29;20077;-75
2023/06/01 10:34:21;;;;;;;9.25;4.10;;;24.70;99.90;;;;;;4874461;29;20065;-80
2023/06/01 10:37:30;;;;;;;6.65;3.90;;;24.80;99.90;;;;;;4870517;29;20124;-79
2023/06/01 10:42:45;;;;;;;5.85;3.30;;;24.70;99.90;;;;;;4463217;27;20117;-78
2023/06/01 10:45:39;;;;;;;7.85;3.97;;;24.80;99.90;;;;;;4867945;29;20459;-78
2023/06/01 10:48:11;;;;;;;8.90;3.42;;;24.80;99.90;;;;;;4888995;29;20081;-79
2023/06/01 10:51:18;;;;;;;6.60;3.67;;;24.70;99.90;;;;;;4902661;23;20044;-78
2023/06/01 10:54:39;;;;;;;8.57;3.33;;;24.30;99.90;;;;;;4890130;29;20052;-77
2023/06/01 10:58:06;;;;;;;5.68;3.60;;;24.60;99.90;;;;;;4913405;29;20435;-79
2023/06/01 11:01:35;;;;;;;9.20;4.18;;;24.70;99.90;;;;;;4880501;29;20053;-78
2023/06/01 11:07:58;;;;;;;7.30;3.65;;;24.80;99.90;;;;;;4895797;29;20100;-78
2023/06/01 11:10:59;;;;;;;6.97;3.67;;;25.00;99.90;;;;;;4907398;29;20051;-79
2023/06/01 11:14:35;;;;;;;6.88;4.38;;;25.10;99.90;;;;;;4815334;29;20027;-76
2023/06/01 11:21:51;;;;;;;6.05;2.97;;;25.30;99.90;;;;;;5180195;23;20081;-78
2023/06/01 11:25:10;;;;;;;6.85;3.53;;;25.50;99.40;;;;;;4879853;29;20057;-82
2023/06/01 11:35:17;;;;;;;9.25;3.80;;;25.40;97.70;;;;;;4875675;29;20200;-78
2023/06/01 11:37:47;;;;;;;11.13;3.90;;;25.30;98.10;;;;;;4908215;29;20045;-79
2023/06/01 11:40:16;;;;;;;5.97;3.33;;;25.20;98.40;;;;;;4908199;29;20080;-79
2023/06/01 11:42:46;;;;;;;7.32;3.50;;;25.20;98.50;;;;;;4901037;29;20053;-78
2023/06/01 11:45:16;;;;;;;9.77;5.07;;;25.10;97.50;;;;;;4881667;29;20053;-78
2023/06/01 11:48:29;;;;;;;7.07;3.95;;;25.10;98.20;;;;;;4890754;29;20080;-79
2023/06/01 11:51:23;;;;;;;6.30;3.92;;;25.10;98.60;;;;;;4890450;29;20053;-75
2023/06/01 11:53:50;;;;;;;10.70;4.95;;;25.60;99.90;;;;;;4863740;29;20064;-77
2023/06/01 11:56:28;;;;;;;6.00;3.45;;;25.60;99.30;;;;;;4852390;29;20054;-75
2023/06/01 12:03:32;;;;;;;5.72;3.67;;;25.20;95.90;;;;;;4887627;29;20051;-76
2023/06/01 12:07:07;;;;;;;8.98;3.70;;;24.90;97.30;;;;;;4906510;29;20511;-77
2023/06/01 12:10:16;;;;;;;7.20;4.10;;;24.70;98.70;;;;;;4873974;29;20085;-74
2023/06/01 12:14:04;;;;;;;7.95;3.50;;;24.80;97.90;;;;;;4905719;29;20048;-80
2023/06/01 12:22:04;;;;;;;5.22;3.05;;;24.70;98.80;;;;;;4785088;29;20132;-75
2023/06/01 12:26:00;;;;;;;5.22;2.63;;;24.10;96.10;;;;;;4742893;30;20044;-78
2023/06/01 12:29:38;;;;;;;5.40;3.25;;;23.80;97.60;;;;;;4768157;30;20064;-79
2023/06/01 12:32:17;;;;;;;7.15;4.63;;;23.90;98.10;;;;;;4746805;30;20526;-77
2023/06/01 12:45:22;;;;;;;;;;;;;;;;;;;;;
2023/06/01 12:48:50;;;;;;;6.20;3.15;;;24.30;99.90;;;;;;4952972;29;20074;-79
2023/06/01 12:52:29;;;;;;;7.10;3.08;;;25.00;93.20;;;;;;4922003;29;20047;-79
2023/06/01 12:55:39;;;;;;;7.40;3.03;;;25.10;95.60;;;;;;4905513;29;20063;-79
2023/06/01 12:59:05;;;;;;;5.57;3.25;;;26.50;93.60;;;;;;4927010;29;20088;-77
2023/06/01 13:05:25;;;;;;;8.07;3.20;;;26.30;91.80;;;;;;4918561;29;20072;-79
2023/06/01 13:20:50;;;;;;;8.23;3.47;;;27.60;90.20;;;;;;5102717;23;20040;-81
2023/06/01 13:23:48;;;;;;;5.88;3.60;;;27.80;89.50;;;;;;5074873;23;20358;-78
2023/06/01 13:26:34;;;;;;;11.80;3.42;;;28.50;89.80;;;;;;4911211;29;20076;-78
2023/06/01 13:37:55;;;;;;;5.75;3.67;;;28.60;85.50;;;;;;4863480;29;20053;-78
2023/06/01 13:41:24;;;;;;;5.75;3.70;;;28.40;85.20;;;;;;4882530;29;20152;-79
2023/06/01 13:44:19;;;;;;;6.57;3.88;;;28.60;86.00;;;;;;5026084;23;20041;-79
2023/06/01 13:47:07;;;;;;;8.55;4.43;;;29.10;85.30;;;;;;4860449;29;20113;-76
2023/06/01 13:49:53;;;;;;;;;;;29.40;83.80;;;;;;4894259;29;20060;-77
2023/06/01 13:53:44;;;;;;;6.15;3.35;;;29.00;83.20;;;;;;4808034;29;19933;-81
2023/06/01 13:56:17;;;;;;;6.38;3.50;;;28.60;82.10;;;;;;4896015;29;20056;-82
2023/06/01 13:59:03;;;;;;;5.30;3.25;;;28.60;82.50;;;;;;4890051;29;20199;-84
2023/06/01 14:05:33;;;;;;;7.97;3.50;;;28.70;82.70;;;;;;4886228;29;20057;-76
2023/06/01 14:08:15;;;;;;;5.35;3.13;;;29.20;79.90;;;;;;4903247;29;20073;-81
2023/06/01 14:10:47;;;;;;;7.50;3.17;;;29.30;75.50;;;;;;4892712;29;20057;-80
2023/06/01 14:13:55;;;;;;;6.63;3.28;;;29.20;76.10;;;;;;4851878;29;20034;-76
2023/06/01 14:16:43;;;;;;;5.28;3.03;;;30.00;77.20;;;;;;4889550;29;20048;-79
2023/06/01 14:20:39;;;;;;;5.82;3.47;;;29.70;77.20;;;;;;4858963;29;20045;-80
2023/06/01 14:25:58;;;;;;;5.50;3.00;;;31.40;74.60;;;;;;4928980;29;20467;-83
2023/06/01 14:28:30;;;;;;;7.47;3.53;;;33.30;71.90;;;;;;4890264;29;20063;-79
2023/06/01 14:31:59;;;;;;;8.25;3.70;;;34.50;67.40;;;;;;4924001;29;20094;-77
2023/06/01 14:34:56;;;;;;;6.07;3.35;;;36.40;62.50;;;;;;4905829;29;20064;-77
2023/06/01 14:38:16;;;;;;;5.40;2.88;;;36.70;60.10;;;;;;5012312;23;20143;-81
2023/06/01 14:41:26;;;;;;;5.88;2.42;;;37.20;56.70;;;;;;4886772;29;20059;-79
2023/06/01 14:55:35;;;;;;;5.38;2.92;;;37.20;53.50;;;;;;4901715;29;20055;-81
2023/06/01 15:00:48;;;;;;;7.72;3.00;;;35.20;52.90;;;;;;5125724;23;20027;-80
2023/06/01 15:04:29;;;;;;;8.20;2.88;;;33.40;57.60;;;;;;4923444;29;20040;-79
2023/06/01 15:07:41;;;;;;;6.43;3.30;;;35.40;56.00;;;;;;4923532;29;20055;-78
2023/06/01 15:10:45;;;;;;;16.40;13.18;;;33.90;55.30;;;;;;4949926;29;20052;-78
2023/06/01 15:14:47;;;;;;;13.88;11.02;;;32.10;60.20;;;;;;4939230;29;20048;-76
2023/06/01 15:21:32;;;;;;;4.72;2.85;;;36.20;55.40;;;;;;4954826;29;20045;-81
2023/06/01 15:24:25;;;;;;;5.68;3.10;;;36.00;53.80;;;;;;4950919;28;20040;-81
2023/06/01 15:28:27;;;;;;;6.45;3.28;;;36.70;54.00;;;;;;4913534;29;20052;-83
2023/06/01 15:36:08;;;;;;;34.90;29.95;;;36.20;52.70;;;;;;4866537;29;20082;-77
2023/06/01 15:45:16;;;;;;;82.15;69.10;;;31.70;56.20;;;;;;5033002;23;20048;-77
2023/06/01 15:48:00;;;;;;;15.07;12.85;;;29.20;59.80;;;;;;4902022;29;20089;-79
2023/06/01 15:50:28;;;;;;;10.07;6.15;;;28.00;63.60;;;;;;4892254;29;20086;-78
2023/06/01 15:52:56;;;;;;;7.47;4.57;;;27.50;65.40;;;;;;4900541;29;20052;-79
2023/06/01 15:55:29;;;;;;;9.77;5.05;;;27.00;66.10;;;;;;4846044;29;20052;-76
2023/06/01 16:00:34;;;;;;;13.90;4.68;;;26.70;68.10;;;;;;4834817;29;20050;-72
2023/06/01 16:03:20;;;;;;;6.07;3.50;;;26.40;65.90;;;;;;4821105;29;20061;-72
2023/06/01 16:06:20;;;;;;;11.98;7.18;;;26.30;65.90;;;;;;4816119;29;20111;-73
2023/06/01 16:08:58;;;;;;;6.63;3.65;;;26.30;67.30;;;;;;4814699;29;20050;-73
2023/06/01 16:11:39;;;;;;;10.35;4.35;;;26.40;66.80;;;;;;4831084;29;20380;-71
2023/06/01 16:14:29;;;;;;;6.95;4.07;;;25.90;66.80;;;;;;4841556;29;20141;-77
2023/06/01 16:17:23;;;;;;;8.05;4.68;;;25.80;69.90;;;;;;4828556;29;20054;-78
2023/06/01 16:19:59;;;;;;;8.20;5.60;;;25.70;73.90;;;;;;4825810;29;20051;-78
2023/06/01 16:22:36;;;;;;;9.82;4.55;;;25.50;76.00;;;;;;4825631;29;20058;-75
2023/06/01 16:25:04;;;;;;;10.77;4.97;;;25.40;76.90;;;;;;4818908;29;20047;-75
2023/06/01 16:27:31;;;;;;;10.70;4.53;;;25.20;77.50;;;;;;4826712;29;20062;-75
2023/06/01 16:30:04;;;;;;;8.07;4.25;;;25.00;78.40;;;;;;4826744;29;20054;-76
2023/06/01 16:32:52;;;;;;;12.15;5.10;;;25.00;79.40;;;;;;4825059;29;20081;-74
2023/06/01 16:35:33;;;;;;;9.60;5.00;;;24.90;81.10;;;;;;4823733;29;20062;-73
2023/06/01 16:38:22;;;;;;;8.48;4.72;;;24.80;80.00;;;;;;4832224;29;20169;-75
2023/06/01 16:41:00;;;;;;;11.52;5.50;;;24.70;81.50;;;;;;4827229;29;20069;-76
2023/06/01 16:43:31;;;;;;;8.60;4.95;;;24.60;81.60;;;;;;4839599;29;20121;-77
2023/06/01 16:45:59;;;;;;;8.65;4.47;;;24.60;82.10;;;;;;4844079;29;20058;-80
2023/06/01 16:48:27;;;;;;;123.20;84.80;;;24.50;81.80;;;;;;4839249;29;20054;-78
2023/06/01 16:51:12;;;;;;;69.75;46.90;;;24.60;83.90;;;;;;4860643;29;20423;-76
2023/06/01 16:53:55;;;;;;;22.20;14.82;;;24.50;85.60;;;;;;4860042;29;20127;-80
2023/06/01 16:56:54;;;;;;;9.80;4.90;;;24.40;86.20;;;;;;4824641;29;20054;-75
2023/06/01 16:59:51;;;;;;;28.75;14.82;;;24.20;87.70;;;;;;4833680;29;20138;-74
2023/06/01 17:02:39;;;;;;;17.17;7.95;;;24.20;90.10;;;;;;4859133;24;20524;-77